sensor_id;sensor_type;location;lat;lon;timestamp;pressure;altitude;pressure_sealevel;temperature;humidity
13765;BME280;6953;48.810;9.204;2023-08-12T00:00:02;98983.53;;;21.59;100.00
13765;BME280;6953;48.810;9.204;2023-08-12T00:02:37;98955.13;;;21.39;100.00
13765;BME280;6953;48.810;9.204;2023-08-12T00:05:03;99007.00;;;21.46;100.00
13765;BME280;6953;48.810;9.204;2023-08-12T00:07:29;98980.16;;;21.38;100.00
13765;BME280;6953;48.810;9.204;2023-08-12T00:09:54;98984.94;;;21.35;100.00
13765;BME280;6953;48.810;9.204;2023-08-12T00:12:21;98965.53;;;21.23;100.00
13765;BME280;6953;48.810;9.204;2023-08-12T00:14:46;98978.03;;;21.32;100.00
13765;BME280;6953;48.810;9.204;2023-08-12T00:17:12;98969.63;;;21.27;100.00
13765;BME280;6953;48.810;9.204;2023-08-12T00:19:37;98972.41;;;21.35;100.00
13765;BME280;6953;48.810;9.204;2023-08-12T00:22:03;98870.41;;;20.75;100.00
13765;BME280;6953;48.810;9.204;2023-08-12T00:24:30;98719.47;;;19.97;100.00
13765;BME280;6953;48.810;9.204;2023-08-12T00:26:55;98727.09;;;20.01;100.00
13765;BME280;6953;48.810;9.204;2023-08-12T00:29:21;98881.25;;;20.93;100.00
13765;BME280;6953;48.810;9.204;2023-08-12T00:31:46;98862.56;;;20.83;100.00
13765;BME280;6953;48.810;9.204;2023-08-12T00:34:12;98712.22;;;19.99;100.00
13765;BME280;6953;48.810;9.204;2023-08-12T00:36:37;98892.34;;;20.98;100.00
13765;BME280;6953;48.810;9.204;2023-08-12T00:39:02;98945.28;;;21.30;100.00
13765;BME280;6953;48.810;9.204;2023-08-12T00:41:29;98947.84;;;21.32;100.00
13765;BME280;6953;48.810;9.204;2023-08-12T00:43:54;98942.50;;;21.32;100.00
13765;BME280;6953;48.810;9.204;2023-08-12T00:46:20;98953.44;;;21.29;100.00
13765;BME280;6953;48.810;9.204;2023-08-12T00:48:45;98938.97;;;21.22;100.00
13765;BME280;6953;48.810;9.204;2023-08-12T00:51:10;98908.50;;;21.05;100.00
13765;BME280;6953;48.810;9.204;2023-08-12T00:53:36;98931.81;;;21.22;100.00
13765;BME280;6953;48.810;9.204;2023-08-12T00:56:02;98823.78;;;20.60;100.00
13765;BME280;6953;48.810;9.204;2023-08-12T00:58:28;98939.66;;;21.24;100.00
13765;BME280;6953;48.810;9.204;2023-08-12T01:00:53;98934.91;;;21.27;100.00
13765;BME280;6953;48.810;9.204;2023-08-12T01:03:19;98872.41;;;20.92;100.00
13765;BME280;6953;48.810;9.204;2023-08-12T01:05:46;98921.69;;;21.16;100.00
13765;BME280;6953;48.810;9.204;2023-08-12T01:08:11;98929.28;;;21.21;100.00
13765;BME280;6953;48.810;9.204;2023-08-12T01:10:39;98855.94;;;20.78;100.00
13765;BME280;6953;48.810;9.204;2023-08-12T01:13:23;98900.22;;;21.08;100.00
13765;BME280;6953;48.810;9.204;2023-08-12T01:15:53;98951.75;;;21.28;100.00
13765;BME280;6953;48.810;9.204;2023-08-12T01:18:20;98620.47;;;19.54;100.00
13765;BME280;6953;48.810;9.204;2023-08-12T01:20:46;98919.00;;;21.35;100.00
13765;BME280;6953;48.810;9.204;2023-08-12T01:23:13;98753.63;;;20.41;100.00
13765;BME280;6953;48.810;9.204;2023-08-12T01:25:39;98854.72;;;21.00;100.00
13765;BME280;6953;48.810;9.204;2023-08-12T01:28:05;98646.41;;;19.81;100.00
13765;BME280;6953;48.810;9.204;2023-08-12T01:30:32;98855.69;;;20.99;100.00
13765;BME280;6953;48.810;9.204;2023-08-12T01:33:19;98908.78;;;21.31;100.00
13765;BME280;6953;48.810;9.204;2023-08-12T01:35:51;98813.13;;;20.70;100.00
13765;BME280;6953;48.810;9.204;2023-08-12T01:38:20;98883.50;;;21.06;100.00
13765;BME280;6953;48.810;9.204;2023-08-12T01:40:47;98898.22;;;21.10;100.00
13765;BME280;6953;48.810;9.204;2023-08-12T01:43:13;98685.97;;;19.85;100.00
13765;BME280;6953;48.810;9.204;2023-08-12T01:45:41;98917.34;;;21.15;100.00
13765;BME280;6953;48.810;9.204;2023-08-12T01:48:06;98892.88;;;21.20;100.00
13765;BME280;6953;48.810;9.204;2023-08-12T01:50:31;98858.53;;;20.89;100.00
13765;BME280;6953;48.810;9.204;2023-08-12T01:52:57;98880.25;;;21.22;100.00
13765;BME280;6953;48.810;9.204;2023-08-12T01:55:23;98689.25;;;20.07;100.00
13765;BME280;6953;48.810;9.204;2023-08-12T01:57:48;98883.63;;;21.24;100.00
13765;BME280;6953;48.810;9.204;2023-08-12T02:00:14;98893.47;;;21.33;100.00
13765;BME280;6953;48.810;9.204;2023-08-12T02:02:40;98905.53;;;21.37;100.00
13765;BME280;6953;48.810;9.204;2023-08-12T02:05:05;98899.59;;;21.43;100.00
13765;BME280;6953;48.810;9.204;2023-08-12T02:07:32;98834.50;;;21.07;100.00
13765;BME280;6953;48.810;9.204;2023-08-12T02:09:57;98897.63;;;21.54;100.00
13765;BME280;6953;48.810;9.204;2023-08-12T02:12:25;98900.03;;;21.67;100.00
13765;BME280;6953;48.810;9.204;2023-08-12T02:14:51;98896.78;;;21.73;100.00
13765;BME280;6953;48.810;9.204;2023-08-12T02:17:16;98886.91;;;21.73;100.00
13765;BME280;6953;48.810;9.204;2023-08-12T02:19:41;98912.78;;;21.82;100.00
13765;BME280;6953;48.810;9.204;2023-08-12T02:22:07;98918.78;;;21.94;100.00
13765;BME280;6953;48.810;9.204;2023-08-12T02:24:32;98909.06;;;22.02;100.00
13765;BME280;6953;48.810;9.204;2023-08-12T02:26:57;98892.28;;;22.09;100.00
13765;BME280;6953;48.810;9.204;2023-08-12T02:29:23;98886.88;;;22.19;100.00
13765;BME280;6953;48.810;9.204;2023-08-12T02:31:48;98918.38;;;22.25;100.00
13765;BME280;6953;48.810;9.204;2023-08-12T02:34:13;98690.34;;;21.17;100.00
13765;BME280;6953;48.810;9.204;2023-08-12T02:36:39;98903.16;;;22.35;100.00
13765;BME280;6953;48.810;9.204;2023-08-12T02:39:04;98880.63;;;22.37;100.00
13765;BME280;6953;48.810;9.204;2023-08-12T02:41:30;98877.81;;;22.39;100.00
13765;BME280;6953;48.810;9.204;2023-08-12T02:43:55;98870.94;;;22.36;100.00
13765;BME280;6953;48.810;9.204;2023-08-12T02:46:21;98892.31;;;22.36;100.00
13765;BME280;6953;48.810;9.204;2023-08-12T02:48:46;98876.41;;;22.35;100.00
13765;BME280;6953;48.810;9.204;2023-08-12T02:51:14;98873.75;;;22.35;100.00
13765;BME280;6953;48.810;9.204;2023-08-12T02:53:40;98869.25;;;22.35;100.00
13765;BME280;6953;48.810;9.204;2023-08-12T02:56:05;98872.19;;;22.32;100.00
13765;BME280;6953;48.810;9.204;2023-08-12T02:58:30;98830.09;;;22.07;100.00
13765;BME280;6953;48.810;9.204;2023-08-12T03:00:56;98882.75;;;22.34;100.00
13765;BME280;6953;48.810;9.204;2023-08-12T03:03:21;98885.13;;;22.37;100.00
13765;BME280;6953;48.810;9.204;2023-08-12T03:05:47;98644.47;;;21.04;99.90
13765;BME280;6953;48.810;9.204;2023-08-12T03:08:13;98875.13;;;22.39;99.81
13765;BME280;6953;48.810;9.204;2023-08-12T03:10:38;98868.78;;;22.40;99.69
13765;BME280;6953;48.810;9.204;2023-08-12T03:13:04;98894.38;;;22.42;99.68
13765;BME280;6953;48.810;9.204;2023-08-12T03:15:29;98868.50;;;22.43;99.47
13765;BME280;6953;48.810;9.204;2023-08-12T03:17:55;98865.53;;;22.46;99.48
13765;BME280;6953;48.810;9.204;2023-08-12T03:20:21;98863.44;;;22.40;99.19
13765;BME280;6953;48.810;9.204;2023-08-12T03:22:46;98673.41;;;21.35;98.84
13765;BME280;6953;48.810;9.204;2023-08-12T03:25:12;98878.31;;;22.52;98.65
13765;BME280;6953;48.810;9.204;2023-08-12T03:27:40;98867.28;;;22.55;98.50
13765;BME280;6953;48.810;9.204;2023-08-12T03:30:07;98782.38;;;22.12;98.46
13765;BME280;6953;48.810;9.204;2023-08-12T03:32:33;98796.28;;;22.16;98.23
13765;BME280;6953;48.810;9.204;2023-08-12T03:34:58;98726.69;;;21.91;98.03
13765;BME280;6953;48.810;9.204;2023-08-12T03:37:25;98877.09;;;22.64;97.92
13765;BME280;6953;48.810;9.204;2023-08-12T03:39:50;98855.69;;;22.64;98.03
13765;BME280;6953;48.810;9.204;2023-08-12T03:42:15;98860.03;;;22.65;97.73
13765;BME280;6953;48.810;9.204;2023-08-12T03:44:42;98827.47;;;22.52;97.82
13765;BME280;6953;48.810;9.204;2023-08-12T03:47:07;98864.88;;;22.61;97.69
13765;BME280;6953;48.810;9.204;2023-08-12T03:49:33;98856.06;;;22.69;97.54
13765;BME280;6953;48.810;9.204;2023-08-12T03:51:58;98859.44;;;22.71;97.31
13765;BME280;6953;48.810;9.204;2023-08-12T03:54:23;98877.31;;;22.70;97.20
13765;BME280;6953;48.810;9.204;2023-08-12T03:56:49;98888.72;;;22.72;97.35
13765;BME280;6953;48.810;9.204;2023-08-12T03:59:14;98856.22;;;22.67;97.05
13765;BME280;6953;48.810;9.204;2023-08-12T04:01:39;98861.97;;;22.72;97.25
13765;BME280;6953;48.810;9.204;2023-08-12T04:04:05;98868.00;;;22.74;97.08
13765;BME280;6953;48.810;9.204;2023-08-12T04:06:30;98896.44;;;22.75;97.22
13765;BME280;6953;48.810;9.204;2023-08-12T04:08:56;98869.50;;;22.77;96.68
13765;BME280;6953;48.810;9.204;2023-08-12T04:11:21;98651.41;;;21.51;96.49
13765;BME280;6953;48.810;9.204;2023-08-12T04:13:46;98873.13;;;22.68;97.28
13765;BME280;6953;48.810;9.204;2023-08-12T04:16:12;98857.75;;;22.70;96.88
13765;BME280;6953;48.810;9.204;2023-08-12T04:18:37;98625.34;;;21.35;96.72
13765;BME280;6953;48.810;9.204;2023-08-12T04:21:03;98756.88;;;22.01;96.57
13765;BME280;6953;48.810;9.204;2023-08-12T04:23:28;98672.75;;;21.60;96.39
13765;BME280;6953;48.810;9.204;2023-08-12T04:25:53;98867.41;;;22.80;96.40
13765;BME280;6953;48.810;9.204;2023-08-12T04:28:21;98892.41;;;22.89;96.27
13765;BME280;6953;48.810;9.204;2023-08-12T04:30:47;98829.59;;;22.48;96.55
13765;BME280;6953;48.810;9.204;2023-08-12T04:33:14;98748.84;;;22.01;96.14
13765;BME280;6953;48.810;9.204;2023-08-12T04:35:40;98925.34;;;22.89;96.55
13765;BME280;6953;48.810;9.204;2023-08-12T04:38:06;98884.38;;;22.89;96.79
13765;BME280;6953;48.810;9.204;2023-08-12T04:40:32;98916.50;;;22.89;96.78
13765;BME280;6953;48.810;9.204;2023-08-12T04:43:00;98874.78;;;22.86;96.59
13765;BME280;6953;48.810;9.204;2023-08-12T04:45:25;98892.63;;;22.95;96.43
13765;BME280;6953;48.810;9.204;2023-08-12T04:47:51;98876.25;;;22.98;96.73
13765;BME280;6953;48.810;9.204;2023-08-12T04:50:17;98861.66;;;22.93;96.99
13765;BME280;6953;48.810;9.204;2023-08-12T04:52:42;98884.28;;;22.98;97.20
13765;BME280;6953;48.810;9.204;2023-08-12T04:55:08;98882.63;;;22.97;97.26
13765;BME280;6953;48.810;9.204;2023-08-12T04:57:35;98883.31;;;22.99;96.98
13765;BME280;6953;48.810;9.204;2023-08-12T05:00:01;98874.59;;;22.97;96.85
13765;BME280;6953;48.810;9.204;2023-08-12T05:02:27;98876.31;;;23.06;96.25
13765;BME280;6953;48.810;9.204;2023-08-12T05:04:52;98672.84;;;21.86;96.04
13765;BME280;6953;48.810;9.204;2023-08-12T05:07:18;98882.47;;;23.16;95.83
13765;BME280;6953;48.810;9.204;2023-08-12T05:09:43;98867.88;;;23.11;96.11
13765;BME280;6953;48.810;9.204;2023-08-12T05:12:10;98871.91;;;23.14;96.04
13765;BME280;6953;48.810;9.204;2023-08-12T05:14:35;98874.59;;;23.14;95.90
13765;BME280;6953;48.810;9.204;2023-08-12T05:17:01;98885.38;;;23.22;95.51
13765;BME280;6953;48.810;9.204;2023-08-12T05:19:26;98865.94;;;23.03;96.44
13765;BME280;6953;48.810;9.204;2023-08-12T05:21:51;98855.69;;;22.81;98.55
13765;BME280;6953;48.810;9.204;2023-08-12T05:24:16;98751.19;;;22.03;100.00
13765;BME280;6953;48.810;9.204;2023-08-12T05:26:42;98732.84;;;21.74;100.00
13765;BME280;6953;48.810;9.204;2023-08-12T05:29:07;98898.03;;;22.51;100.00
13765;BME280;6953;48.810;9.204;2023-08-12T05:31:33;98911.91;;;22.54;100.00
13765;BME280;6953;48.810;9.204;2023-08-12T05:33:58;98891.16;;;22.66;100.00
13765;BME280;6953;48.810;9.204;2023-08-12T05:36:23;98912.97;;;22.71;100.00
13765;BME280;6953;48.810;9.204;2023-08-12T05:38:49;98692.53;;;21.67;100.00
13765;BME280;6953;48.810;9.204;2023-08-12T05:41:17;98900.13;;;22.92;100.00
13765;BME280;6953;48.810;9.204;2023-08-12T05:43:42;98665.56;;;21.51;100.00
13765;BME280;6953;48.810;9.204;2023-08-12T05:46:08;98879.91;;;22.80;100.00
13765;BME280;6953;48.810;9.204;2023-08-12T05:48:33;98885.22;;;22.72;100.00
13765;BME280;6953;48.810;9.204;2023-08-12T05:50:58;98869.13;;;22.54;100.00
13765;BME280;6953;48.810;9.204;2023-08-12T05:53:23;98875.06;;;22.48;100.00
13765;BME280;6953;48.810;9.204;2023-08-12T05:55:49;98910.13;;;22.45;100.00
13765;BME280;6953;48.810;9.204;2023-08-12T05:58:14;98885.56;;;22.32;100.00
13765;BME280;6953;48.810;9.204;2023-08-12T06:00:40;98873.38;;;22.20;100.00
13765;BME280;6953;48.810;9.204;2023-08-12T06:03:05;98886.84;;;22.28;100.00
13765;BME280;6953;48.810;9.204;2023-08-12T06:05:30;98892.84;;;22.40;100.00
13765;BME280;6953;48.810;9.204;2023-08-12T06:07:56;98706.66;;;21.41;100.00
13765;BME280;6953;48.810;9.204;2023-08-12T06:10:21;98894.44;;;22.60;100.00
13765;BME280;6953;48.810;9.204;2023-08-12T06:12:46;98898.72;;;22.70;100.00
13765;BME280;6953;48.810;9.204;2023-08-12T06:15:11;98669.25;;;21.23;100.00
13765;BME280;6953;48.810;9.204;2023-08-12T06:17:37;98912.16;;;22.61;100.00
13765;BME280;6953;48.810;9.204;2023-08-12T06:20:02;98880.06;;;22.61;100.00
13765;BME280;6953;48.810;9.204;2023-08-12T06:22:27;98648.69;;;21.33;100.00
13765;BME280;6953;48.810;9.204;2023-08-12T06:24:53;98868.59;;;22.68;100.00
13765;BME280;6953;48.810;9.204;2023-08-12T06:27:18;98708.97;;;21.63;100.00
13765;BME280;6953;48.810;9.204;2023-08-12T06:29:45;98858.06;;;22.67;100.00
13765;BME280;6953;48.810;9.204;2023-08-12T06:32:11;98865.63;;;22.71;100.00
13765;BME280;6953;48.810;9.204;2023-08-12T06:34:38;98844.84;;;22.83;100.00
13765;BME280;6953;48.810;9.204;2023-08-12T06:37:03;98637.38;;;21.76;100.00
13765;BME280;6953;48.810;9.204;2023-08-12T06:39:28;98862.66;;;23.52;100.00
13765;BME280;6953;48.810;9.204;2023-08-12T06:41:54;98867.56;;;24.07;100.00
13765;BME280;6953;48.810;9.204;2023-08-12T06:44:21;98878.97;;;24.50;99.51
13765;BME280;6953;48.810;9.204;2023-08-12T06:46:46;98672.50;;;23.68;96.61
13765;BME280;6953;48.810;9.204;2023-08-12T06:49:12;98870.06;;;25.15;93.76
13765;BME280;6953;48.810;9.204;2023-08-12T06:51:37;98857.13;;;25.19;91.82
13765;BME280;6953;48.810;9.204;2023-08-12T06:54:03;98872.91;;;25.77;90.32
13765;BME280;6953;48.810;9.204;2023-08-12T06:56:28;98671.25;;;25.31;87.18
13765;BME280;6953;48.810;9.204;2023-08-12T06:58:53;98871.72;;;27.62;81.37
13765;BME280;6953;48.810;9.204;2023-08-12T07:01:19;98868.25;;;28.48;76.27
13765;BME280;6953;48.810;9.204;2023-08-12T07:03:44;98679.81;;;28.08;73.17
13765;BME280;6953;48.810;9.204;2023-08-12T07:06:09;98848.47;;;29.87;69.51
13765;BME280;6953;48.810;9.204;2023-08-12T07:08:34;98689.03;;;30.52;63.62
13765;BME280;6953;48.810;9.204;2023-08-12T07:11:00;98865.47;;;32.64;57.87
13765;BME280;6953;48.810;9.204;2023-08-12T07:13:25;98849.63;;;32.42;57.79
13765;BME280;6953;48.810;9.204;2023-08-12T07:15:51;98680.75;;;30.86;59.56
13765;BME280;6953;48.810;9.204;2023-08-12T07:18:16;98867.06;;;32.21;59.08
13765;BME280;6953;48.810;9.204;2023-08-12T07:20:41;98878.78;;;32.02;59.15
13765;BME280;6953;48.810;9.204;2023-08-12T07:23:06;98864.41;;;31.70;58.73
13765;BME280;6953;48.810;9.204;2023-08-12T07:25:32;98863.97;;;31.79;58.16
13765;BME280;6953;48.810;9.204;2023-08-12T07:27:58;98872.06;;;31.21;59.33
13765;BME280;6953;48.810;9.204;2023-08-12T07:30:23;98855.88;;;30.34;61.96
13765;BME280;6953;48.810;9.204;2023-08-12T07:32:48;98893.63;;;30.88;61.46
13765;BME280;6953;48.810;9.204;2023-08-12T07:35:14;98865.31;;;33.34;53.35
13765;BME280;6953;48.810;9.204;2023-08-12T07:37:39;98851.38;;;35.75;43.31
13765;BME280;6953;48.810;9.204;2023-08-12T07:40:05;98888.06;;;37.82;37.11
13765;BME280;6953;48.810;9.204;2023-08-12T07:42:31;98898.16;;;39.28;33.27
13765;BME280;6953;48.810;9.204;2023-08-12T07:44:56;98883.94;;;39.93;31.73
13765;BME280;6953;48.810;9.204;2023-08-12T07:47:21;98770.38;;;39.57;30.81
13765;BME280;6953;48.810;9.204;2023-08-12T07:49:46;98879.66;;;40.07;30.62
13765;BME280;6953;48.810;9.204;2023-08-12T07:52:12;98761.34;;;40.02;29.97
13765;BME280;6953;48.810;9.204;2023-08-12T07:54:37;98825.75;;;41.44;28.73
13765;BME280;6953;48.810;9.204;2023-08-12T07:57:03;98886.78;;;42.02;27.49
13765;BME280;6953;48.810;9.204;2023-08-12T07:59:29;98881.47;;;42.30;26.74
13765;BME280;6953;48.810;9.204;2023-08-12T08:01:54;98880.00;;;42.73;26.34
13765;BME280;6953;48.810;9.204;2023-08-12T08:04:19;98783.59;;;42.71;24.44
13765;BME280;6953;48.810;9.204;2023-08-12T08:06:45;98764.22;;;42.86;24.14
13765;BME280;6953;48.810;9.204;2023-08-12T08:09:10;98882.84;;;43.69;24.56
13765;BME280;6953;48.810;9.204;2023-08-12T08:11:35;98885.25;;;44.42;23.62
13765;BME280;6953;48.810;9.204;2023-08-12T08:14:01;98840.47;;;44.35;23.06
13765;BME280;6953;48.810;9.204;2023-08-12T08:16:26;98881.13;;;45.10;22.70
13765;BME280;6953;48.810;9.204;2023-08-12T08:18:52;98880.56;;;44.90;23.11
13765;BME280;6953;48.810;9.204;2023-08-12T08:21:17;98844.34;;;44.58;22.83
13765;BME280;6953;48.810;9.204;2023-08-12T08:23:42;98870.50;;;45.36;22.03
13765;BME280;6953;48.810;9.204;2023-08-12T08:26:09;98875.59;;;45.47;21.73
13765;BME280;6953;48.810;9.204;2023-08-12T08:28:34;98869.22;;;45.83;21.27
13765;BME280;6953;48.810;9.204;2023-08-12T08:31:00;98813.91;;;44.06;23.04
13765;BME280;6953;48.810;9.204;2023-08-12T08:33:26;98871.50;;;41.30;25.81
13765;BME280;6953;48.810;9.204;2023-08-12T08:35:52;98690.38;;;38.38;29.14
13765;BME280;6953;48.810;9.204;2023-08-12T08:38:17;98864.53;;;39.74;28.38
13765;BME280;6953;48.810;9.204;2023-08-12T08:40:43;98817.19;;;41.30;26.28
13765;BME280;6953;48.810;9.204;2023-08-12T08:43:08;98866.16;;;42.88;24.30
13765;BME280;6953;48.810;9.204;2023-08-12T08:45:34;98871.88;;;43.88;22.93
13765;BME280;6953;48.810;9.204;2023-08-12T08:48:01;98833.69;;;44.70;21.75
13765;BME280;6953;48.810;9.204;2023-08-12T08:50:31;98824.13;;;45.73;20.41
13765;BME280;6953;48.810;9.204;2023-08-12T08:52:57;98874.16;;;45.13;21.14
13765;BME280;6953;48.810;9.204;2023-08-12T08:55:23;98878.16;;;44.55;22.06
13765;BME280;6953;48.810;9.204;2023-08-12T08:57:49;98853.19;;;44.08;22.52
13765;BME280;6953;48.810;9.204;2023-08-12T09:00:16;98877.13;;;44.51;22.66
13765;BME280;6953;48.810;9.204;2023-08-12T09:02:44;98881.16;;;45.29;21.49
13765;BME280;6953;48.810;9.204;2023-08-12T09:05:11;98879.59;;;46.82;19.45
13765;BME280;6953;48.810;9.204;2023-08-12T09:07:38;98880.53;;;47.88;19.21
13765;BME280;6953;48.810;9.204;2023-08-12T09:10:04;98775.56;;;47.45;18.77
13765;BME280;6953;48.810;9.204;2023-08-12T09:12:30;98824.78;;;47.58;19.60
13765;BME280;6953;48.810;9.204;2023-08-12T09:14:56;98862.84;;;48.37;18.92
13765;BME280;6953;48.810;9.204;2023-08-12T09:17:22;98877.78;;;48.41;18.60
13765;BME280;6953;48.810;9.204;2023-08-12T09:19:47;98862.03;;;48.14;18.46
13765;BME280;6953;48.810;9.204;2023-08-12T09:22:13;98865.84;;;48.18;18.68
13765;BME280;6953;48.810;9.204;2023-08-12T09:24:38;98831.09;;;48.93;17.86
13765;BME280;6953;48.810;9.204;2023-08-12T09:27:04;98868.28;;;50.04;17.72
13765;BME280;6953;48.810;9.204;2023-08-12T09:29:30;98865.75;;;50.36;17.31
13765;BME280;6953;48.810;9.204;2023-08-12T09:32:06;98856.44;;;48.06;18.56
13765;BME280;6953;48.810;9.204;2023-08-12T09:34:32;98863.97;;;46.86;20.41
13765;BME280;6953;48.810;9.204;2023-08-12T09:36:58;98877.84;;;47.62;18.85
13765;BME280;6953;48.810;9.204;2023-08-12T09:39:23;98856.66;;;48.48;17.76
13765;BME280;6953;48.810;9.204;2023-08-12T09:41:49;98848.75;;;47.32;19.48
13765;BME280;6953;48.810;9.204;2023-08-12T09:44:15;98856.69;;;46.18;20.47
13765;BME280;6953;48.810;9.204;2023-08-12T09:46:40;98839.72;;;47.84;18.98
13765;BME280;6953;48.810;9.204;2023-08-12T09:49:07;98848.25;;;49.43;17.37
13765;BME280;6953;48.810;9.204;2023-08-12T09:51:35;98862.22;;;51.84;15.40
13765;BME280;6953;48.810;9.204;2023-08-12T09:54:02;98844.47;;;52.92;13.90
13765;BME280;6953;48.810;9.204;2023-08-12T09:56:30;98824.47;;;50.33;16.48
13765;BME280;6953;48.810;9.204;2023-08-12T09:58:59;98810.16;;;47.53;18.89
13765;BME280;6953;48.810;9.204;2023-08-12T10:01:25;98797.19;;;45.42;20.67
13765;BME280;6953;48.810;9.204;2023-08-12T10:03:51;98802.41;;;43.89;22.58
13765;BME280;6953;48.810;9.204;2023-08-12T10:06:19;98613.25;;;41.40;24.05
13765;BME280;6953;48.810;9.204;2023-08-12T10:08:48;98595.22;;;40.03;25.41
13765;BME280;6953;48.810;9.204;2023-08-12T10:11:14;98766.34;;;39.69;27.37
13765;BME280;6953;48.810;9.204;2023-08-12T10:13:40;98734.34;;;38.05;29.92
13765;BME280;6953;48.810;9.204;2023-08-12T10:16:05;98782.41;;;35.27;37.78
13765;BME280;6953;48.810;9.204;2023-08-12T10:18:32;98679.06;;;33.48;41.52
13765;BME280;6953;48.810;9.204;2023-08-12T10:20:59;98764.34;;;34.56;40.49
13765;BME280;6953;48.810;9.204;2023-08-12T10:23:25;98624.72;;;34.65;37.27
13765;BME280;6953;48.810;9.204;2023-08-12T10:25:53;98771.78;;;36.06;36.33
13765;BME280;6953;48.810;9.204;2023-08-12T10:28:20;98713.41;;;36.00;36.13
13765;BME280;6953;48.810;9.204;2023-08-12T10:30:46;98807.44;;;36.61;35.12
13765;BME280;6953;48.810;9.204;2023-08-12T10:33:14;98687.03;;;36.06;34.51
13765;BME280;6953;48.810;9.204;2023-08-12T10:35:46;98784.13;;;36.98;33.48
13765;BME280;6953;48.810;9.204;2023-08-12T10:38:17;98803.22;;;38.25;30.70
13765;BME280;6953;48.810;9.204;2023-08-12T10:40:43;98775.63;;;40.41;27.99
13765;BME280;6953;48.810;9.204;2023-08-12T10:43:09;98798.53;;;42.70;24.85
13765;BME280;6953;48.810;9.204;2023-08-12T10:45:47;98615.69;;;41.57;25.06
13765;BME280;6953;48.810;9.204;2023-08-12T10:48:23;98741.09;;;41.99;24.85
13765;BME280;6953;48.810;9.204;2023-08-12T10:50:52;98788.84;;;41.35;26.62
13765;BME280;6953;48.810;9.204;2023-08-12T10:53:23;98766.03;;;40.63;27.26
13765;BME280;6953;48.810;9.204;2023-08-12T10:55:50;98535.78;;;38.54;28.60
13765;BME280;6953;48.810;9.204;2023-08-12T10:58:45;98779.97;;;39.90;28.45
13765;BME280;6953;48.810;9.204;2023-08-12T11:01:13;98694.19;;;39.52;27.89
13765;BME280;6953;48.810;9.204;2023-08-12T11:03:42;98589.16;;;40.01;26.34
13765;BME280;6953;48.810;9.204;2023-08-12T11:06:10;98776.22;;;43.10;23.58
13765;BME280;6953;48.810;9.204;2023-08-12T11:08:35;98787.53;;;44.37;21.97
13765;BME280;6953;48.810;9.204;2023-08-12T11:11:01;98772.84;;;46.69;19.34
13765;BME280;6953;48.810;9.204;2023-08-12T11:13:27;98633.47;;;44.96;20.56
13765;BME280;6953;48.810;9.204;2023-08-12T11:16:05;98768.03;;;44.24;22.16
13765;BME280;6953;48.810;9.204;2023-08-12T11:18:32;98762.09;;;45.32;20.47
13765;BME280;6953;48.810;9.204;2023-08-12T11:20:57;98792.44;;;47.49;19.07
13765;BME280;6953;48.810;9.204;2023-08-12T11:23:23;98635.88;;;47.35;18.40
13765;BME280;6953;48.810;9.204;2023-08-12T11:25:49;98754.31;;;45.52;20.63
13765;BME280;6953;48.810;9.204;2023-08-12T11:28:15;98631.38;;;42.73;22.63
13765;BME280;6953;48.810;9.204;2023-08-12T11:30:42;98570.03;;;40.81;24.58
13765;BME280;6953;48.810;9.204;2023-08-12T11:33:08;98735.38;;;41.36;24.67
13765;BME280;6953;48.810;9.204;2023-08-12T11:35:34;98675.81;;;41.00;24.45
13765;BME280;6953;48.810;9.204;2023-08-12T11:37:59;98725.00;;;43.22;23.25
13765;BME280;6953;48.810;9.204;2023-08-12T11:40:26;98656.47;;;45.60;20.22
13765;BME280;6953;48.810;9.204;2023-08-12T11:42:52;98551.47;;;46.87;17.75
13765;BME280;6953;48.810;9.204;2023-08-12T11:45:20;98741.53;;;49.03;16.62
13765;BME280;6953;48.810;9.204;2023-08-12T11:47:46;98737.78;;;50.05;16.08
13765;BME280;6953;48.810;9.204;2023-08-12T11:50:18;98735.19;;;50.95;15.34
13765;BME280;6953;48.810;9.204;2023-08-12T11:52:43;98592.59;;;50.37;15.43
13765;BME280;6953;48.810;9.204;2023-08-12T11:55:09;98761.03;;;49.54;15.96
13765;BME280;6953;48.810;9.204;2023-08-12T11:57:34;98735.72;;;46.65;18.20
13765;BME280;6953;48.810;9.204;2023-08-12T12:00:04;98771.59;;;44.29;21.08
13765;BME280;6953;48.810;9.204;2023-08-12T12:02:38;98821.38;;;41.83;23.78
13765;BME280;6953;48.810;9.204;2023-08-12T12:05:09;98815.22;;;38.40;32.19
13765;BME280;6953;48.810;9.204;2023-08-12T12:07:36;98791.88;;;35.77;38.24
13765;BME280;6953;48.810;9.204;2023-08-12T12:10:02;98638.44;;;33.28;44.04
13765;BME280;6953;48.810;9.204;2023-08-12T12:12:28;98757.22;;;32.86;50.53
13765;BME280;6953;48.810;9.204;2023-08-12T12:14:55;98776.06;;;31.67;53.45
13765;BME280;6953;48.810;9.204;2023-08-12T12:17:23;98768.75;;;30.96;57.79
13765;BME280;6953;48.810;9.204;2023-08-12T12:19:56;98854.13;;;30.54;60.65
13765;BME280;6953;48.810;9.204;2023-08-12T12:22:31;98851.53;;;29.78;64.93
13765;BME280;6953;48.810;9.204;2023-08-12T12:25:06;98864.66;;;29.12;67.30
13765;BME280;6953;48.810;9.204;2023-08-12T12:27:32;98890.97;;;27.96;73.71
13765;BME280;6953;48.810;9.204;2023-08-12T12:29:59;98586.94;;;24.94;80.99
13765;BME280;6953;48.810;9.204;2023-08-12T12:32:24;98905.16;;;25.93;89.29
13765;BME280;6953;48.810;9.204;2023-08-12T12:34:50;98883.69;;;25.37;95.01
13765;BME280;6953;48.810;9.204;2023-08-12T12:37:17;98864.16;;;24.88;100.00
13765;BME280;6953;48.810;9.204;2023-08-12T12:39:42;98796.06;;;24.23;100.00
13765;BME280;6953;48.810;9.204;2023-08-12T12:42:08;98903.66;;;24.54;100.00
13765;BME280;6953;48.810;9.204;2023-08-12T12:44:34;98776.16;;;23.85;100.00
13765;BME280;6953;48.810;9.204;2023-08-12T12:46:59;98880.72;;;24.26;100.00
13765;BME280;6953;48.810;9.204;2023-08-12T12:49:24;98694.88;;;23.17;100.00
13765;BME280;6953;48.810;9.204;2023-08-12T12:51:50;98856.31;;;24.04;100.00
13765;BME280;6953;48.810;9.204;2023-08-12T12:54:15;98828.97;;;23.75;100.00
13765;BME280;6953;48.810;9.204;2023-08-12T12:56:41;98912.84;;;24.18;100.00
13765;BME280;6953;48.810;9.204;2023-08-12T12:59:06;98913.03;;;24.17;100.00
13765;BME280;6953;48.810;9.204;2023-08-12T13:01:31;98874.94;;;23.80;100.00